Strona główna
METAR-TAF:

METAR-TAF

Lotnisko :

Port lotniczy Heringsdorf

Heringsdorf, Niemcy

Szerokość geograficzna: 53-53N, Długość geograficzna: 014-09E, wysokość: 28 m

Aktualna obserwacja pogody

Raport powstał 7 godziny i 59 minut temu, godzina 13:50 UTC
Wiatr 11 kt od zachód
Temperatura 4°C
Wilgotność 93%
Ciśnienie 1029 hPa
Widzialność 10 km lub więcej
Przerywane chmury na wysokości 1000 ft

METAR: EDAH 231350Z 26011KT 9999 BKN010 04/03 Q1029

czas: 22:49 (21:49 UTC)

Prognoza

Raport powstał 7 godziny i 49 minut temu, godzina 14:00 UTC
Prognoza ważna od 23 godzina 15 UTC do 23 godzina 24 UTC
Wiatr 8 kt od południowy zachód
Widzialność 10 km lub więcej
Przerywane chmury na wysokości 1100 ft
Stopniowe zmiany
od 23 godzina 15 UTC do 23 godzina 19 UTC
Przerywane chmury na wysokości 1500 ft

TAF: EDAH 231400Z 2315/2324 23008KT 9999 BKN011 BECMG 2315/2319 BKN015

Obserwacja i prognoza pogody dla ponad 4000 lotnisk (raport METAR i TAF).

Dostępne stacje oznaczono żółtymi i czerwonymi punktami na mapie.

Najedź kursorem aby zobaczyć nazwę stacji.

Kliknij aby zobaczyć obserwacje i prognozy pogody.

Aby zmienić mapę: kliknij na zielony przycisk z czarnym krzyżykiem, aby powiększyć; na zielony przycisk z myślnikiem, aby pomniejszyć; na zielone strzałki, aby przejść do map sąsiednich.


METAR-TAF: